Time;durP1;ratioP1;P1;durP2;ratioP2;P2;SDS_P1;SDS_P2;PMS_P1;PMS_P2;Temp;Humidity;BMP_temperature;BMP_pressure;BME280_temperature;BME280_humidity;BME280_pressure;Samples;Min_cycle;Max_cycle;Signal;HPM_P1;HPM_P2
2022/11/12 00:01:46;;;;;;;7.47;6.37;;;6.10;99.90;5.10;97487.00;;;;5096030;28;20205;-60
2022/11/12 00:04:13;;;;;;;2.27;2.07;;;6.10;99.90;5.20;97483.00;;;;5095989;28;20199;-59
2022/11/12 00:06:42;;;;;;;2.83;2.23;;;6.10;99.90;5.10;97489.00;;;;5096064;28;20604;-65
2022/11/12 00:09:11;;;;;;;1.20;1.20;;;6.00;99.90;5.10;97480.00;;;;5095031;28;20201;-63
2022/11/12 00:11:37;;;;;;;1.70;1.60;;;6.00;99.90;5.00;97474.00;;;;5096153;28;20352;-59
2022/11/12 00:14:04;;;;;;;2.53;2.33;;;5.90;99.90;5.00;97472.00;;;;5096065;28;20199;-59
2022/11/12 00:16:30;;;;;;;1.50;1.40;;;5.90;99.90;5.00;97476.00;;;;5094555;28;20270;-60
2022/11/12 00:18:57;;;;;;;1.53;1.43;;;5.90;99.90;4.80;97461.00;;;;5095963;28;20224;-60
2022/11/12 00:21:24;;;;;;;1.20;1.20;;;5.80;99.90;4.70;97464.00;;;;5095753;28;20556;-59
2022/11/12 00:23:50;;;;;;;1.60;1.50;;;5.70;99.90;4.80;97463.00;;;;5095488;28;20256;-59
2022/11/12 00:26:16;;;;;;;1.33;1.20;;;5.70;99.90;4.80;97471.00;;;;5095649;28;20696;-59
2022/11/12 00:28:43;;;;;;;1.67;1.57;;;5.70;99.90;4.90;97464.00;;;;5095648;28;20295;-59
2022/11/12 00:31:11;;;;;;;1.23;1.23;;;5.80;99.90;4.90;97469.00;;;;5095536;28;20190;-59
2022/11/12 00:33:41;;;;;;;1.80;1.70;;;5.80;99.90;5.00;97466.00;;;;5095561;28;20289;-59
2022/11/12 00:36:08;;;;;;;1.23;1.23;;;5.80;99.90;4.80;97464.00;;;;5094506;28;20226;-59
2022/11/12 00:38:37;;;;;;;1.17;1.17;;;5.70;99.90;4.80;97460.00;;;;5077494;28;20675;-59
2022/11/12 00:41:04;;;;;;;1.30;1.27;;;5.70;99.90;4.80;97463.00;;;;5095362;28;20207;-59
2022/11/12 00:43:30;;;;;;;0.70;0.70;;;5.70;99.90;4.80;97457.00;;;;5095478;28;20210;-61
2022/11/12 00:45:57;;;;;;;1.07;1.07;;;5.70;99.90;4.80;97465.00;;;;5095248;28;20190;-59
2022/11/12 00:48:25;;;;;;;0.70;0.70;;;5.60;99.90;4.70;97460.00;;;;5095065;28;20214;-61
2022/11/12 00:50:59;;;;;;;1.10;1.10;;;5.60;99.90;4.70;97463.00;;;;5095169;28;20702;-61
2022/11/12 00:53:26;;;;;;;1.37;1.27;;;5.50;99.90;4.70;97454.00;;;;5095106;28;20190;-59
2022/11/12 00:55:58;;;;;;;1.33;1.30;;;5.60;99.90;4.80;97462.00;;;;5095392;28;20206;-60
2022/11/12 00:58:24;;;;;;;1.13;1.13;;;5.60;99.90;4.80;97461.00;;;;5095023;28;20233;-59
2022/11/12 01:00:51;;;;;;;0.73;0.73;;;5.70;99.90;4.80;97464.00;;;;5094934;28;20565;-60
2022/11/12 01:03:17;;;;;;;0.63;0.63;;;5.70;99.90;4.60;97461.00;;;;5095190;28;20195;-59
2022/11/12 01:05:44;;;;;;;1.03;1.03;;;5.50;99.90;4.40;97458.00;;;;5094963;28;20258;-61
2022/11/12 01:08:10;;;;;;;3.00;1.13;;;5.30;99.90;4.50;97465.00;;;;5095085;28;20202;-59
2022/11/12 01:10:36;;;;;;;1.67;1.57;;;5.30;99.90;4.50;97467.00;;;;5094864;28;20552;-59
2022/11/12 01:13:06;;;;;;;1.03;0.97;;;5.30;99.90;4.50;97461.00;;;;5094788;28;20223;-59
2022/11/12 01:15:32;;;;;;;1.10;1.10;;;5.40;99.90;4.50;97464.00;;;;5094881;28;20522;-64
2022/11/12 01:17:59;;;;;;;1.43;1.43;;;5.30;99.90;4.60;97460.00;;;;5093892;28;20284;-59
2022/11/12 01:20:28;;;;;;;1.13;1.10;;;5.40;99.90;4.50;97466.00;;;;5094794;28;20195;-60
2022/11/12 01:22:54;;;;;;;1.00;1.00;;;5.40;99.90;4.60;97460.00;;;;5094815;28;20194;-59
2022/11/12 01:25:21;;;;;;;0.90;0.90;;;5.40;99.90;4.60;97468.00;;;;5094611;28;20251;-59
2022/11/12 01:27:47;;;;;;;0.80;0.80;;;5.50;99.90;4.70;97457.00;;;;5094240;28;20199;-59
2022/11/12 01:30:15;;;;;;;1.00;1.00;;;5.50;99.90;4.60;97464.00;;;;5094731;28;20234;-59
2022/11/12 01:32:41;;;;;;;1.03;1.03;;;5.50;99.90;4.70;97450.00;;;;5094656;28;20261;-60
2022/11/12 01:35:08;;;;;;;0.73;0.73;;;5.60;99.90;4.70;97453.00;;;;5094450;28;20232;-59
2022/11/12 01:37:34;;;;;;;1.10;1.10;;;5.60;99.90;4.70;97447.00;;;;5094583;28;20287;-59
2022/11/12 01:40:00;;;;;;;1.93;1.80;;;5.60;99.90;4.70;97449.00;;;;5094362;28;20223;-59
2022/11/12 01:42:31;;;;;;;0.80;0.80;;;5.60;99.90;4.70;97436.00;;;;5094276;28;20228;-59
2022/11/12 01:44:57;;;;;;;1.13;1.03;;;5.60;99.90;4.70;97440.00;;;;5094463;28;20219;-60
2022/11/12 01:47:29;;;;;;;1.13;1.13;;;5.60;99.90;4.70;97438.00;;;;5094568;28;20229;-63
2022/11/12 01:50:12;;;;;;;1.07;1.03;;;5.60;99.90;4.70;97436.00;;;;5094593;28;20194;-66
2022/11/12 01:52:45;;;;;;;1.77;1.67;;;5.60;99.90;4.70;97437.00;;;;5094441;28;20253;-59
2022/11/12 01:55:18;;;;;;;1.00;1.00;;;5.50;99.90;4.60;97427.00;;;;5076451;28;20217;-59
2022/11/12 01:57:52;;;;;;;1.17;1.17;;;5.40;99.40;4.50;97416.00;;;;5094292;28;20199;-59
2022/11/12 02:00:19;;;;;;;0.80;0.80;;;5.40;99.70;4.40;97417.00;;;;5076329;28;20218;-59
2022/11/12 02:02:53;;;;;;;1.27;1.27;;;5.30;99.90;4.50;97417.00;;;;5094087;28;20269;-58
2022/11/12 02:05:21;;;;;;;2.30;2.10;;;5.30;99.90;4.40;97414.00;;;;5094316;28;20211;-59
2022/11/12 02:07:49;;;;;;;1.20;1.20;;;5.30;99.90;4.40;97416.00;;;;5093951;28;20200;-62
2022/11/12 02:10:15;;;;;;;0.70;0.70;;;5.30;99.90;4.50;97414.00;;;;5093904;28;20214;-64
2022/11/12 02:15:28;;;;;;;1.40;1.30;;;5.30;99.90;4.50;97404.00;;;;5094014;28;20228;-61
2022/11/12 02:17:55;;;;;;;0.80;0.80;;;5.40;99.90;4.50;97410.00;;;;5093995;28;20212;-60
2022/11/12 02:20:22;;;;;;;1.77;1.50;;;5.40;99.90;4.40;97402.00;;;;5094012;28;20229;-61
2022/11/12 02:22:49;;;;;;;1.00;1.00;;;5.30;99.90;4.40;97400.00;;;;5094032;28;20238;-59
2022/11/12 02:25:22;;;;;;;1.40;0.87;;;5.30;99.90;4.40;97390.00;;;;5093985;28;20279;-59
2022/11/12 02:27:50;;;;;;;1.03;1.03;;;5.30;99.90;4.50;97388.00;;;;5093966;28;20199;-59
2022/11/12 02:30:18;;;;;;;1.10;1.10;;;5.40;99.90;4.40;97389.00;;;;5093807;28;20202;-59
2022/11/12 02:32:44;;;;;;;1.30;1.20;;;5.30;99.90;4.40;97396.00;;;;5093697;28;20235;-59
2022/11/12 02:35:13;;;;;;;0.60;0.60;;;5.40;99.90;4.40;97390.00;;;;5093719;28;20206;-58
2022/11/12 02:37:39;;;;;;;1.10;1.10;;;5.40;99.90;4.40;97379.00;;;;5093574;28;20524;-60
2022/11/12 02:40:10;;;;;;;0.73;0.73;;;5.40;99.90;4.30;97387.00;;;;5096723;28;20237;-59
2022/11/12 02:42:39;;;;;;;0.60;0.60;;;5.30;99.90;4.30;97390.00;;;;5097179;28;20210;-59
2022/11/12 02:45:06;;;;;;;0.73;0.73;;;5.30;99.90;4.20;97394.00;;;;5097295;28;20213;-59
2022/11/12 02:47:33;;;;;;;0.80;0.80;;;5.20;99.90;4.20;97386.00;;;;5097256;28;20201;-58
2022/11/12 02:49:59;;;;;;;1.10;1.10;;;5.10;99.90;3.90;97397.00;;;;5097065;28;20491;-59
2022/11/12 02:52:26;;;;;;;1.10;1.10;;;4.90;98.90;3.60;97386.00;;;;5097183;28;20191;-59
2022/11/12 02:54:52;;;;;;;0.97;0.97;;;4.70;99.30;3.60;97386.00;;;;5097070;28;20223;-59
2022/11/12 02:57:19;;;;;;;1.47;1.43;;;4.60;99.90;3.70;97389.00;;;;5096079;28;20226;-59
2022/11/12 02:59:45;;;;;;;1.70;1.60;;;4.60;99.90;3.70;97388.00;;;;5096764;28;20222;-59
2022/11/12 03:02:12;;;;;;;0.83;0.83;;;4.60;99.90;3.60;97391.00;;;;5096990;28;20200;-58
2022/11/12 03:04:38;;;;;;;1.40;1.23;;;4.60;99.90;3.60;97386.00;;;;5096123;28;20222;-58
2022/11/12 03:07:05;;;;;;;1.00;1.00;;;4.60;99.90;3.70;97380.00;;;;5095946;28;20256;-58
2022/11/12 03:09:31;;;;;;;1.10;1.10;;;4.60;99.90;3.70;97386.00;;;;5096875;28;20187;-59
2022/11/12 03:11:58;;;;;;;0.80;0.80;;;4.60;99.90;3.60;97392.00;;;;5096775;28;20713;-59
2022/11/12 03:14:25;;;;;;;0.80;0.80;;;4.60;99.90;3.50;97365.00;;;;5096767;28;20203;-58
2022/11/12 03:16:52;;;;;;;0.77;0.77;;;4.40;99.90;3.50;97396.00;;;;5096638;28;20287;-59
2022/11/12 03:19:18;;;;;;;1.37;1.27;;;4.40;99.90;3.50;97395.00;;;;5096560;28;20219;-58
2022/11/12 03:21:44;;;;;;;1.10;1.10;;;4.40;99.90;3.70;97388.00;;;;5096416;28;20214;-58
2022/11/12 03:24:11;;;;;;;0.97;0.97;;;4.50;99.90;3.60;97392.00;;;;5096682;28;20202;-59
2022/11/12 03:26:37;;;;;;;1.37;0.97;;;4.50;99.90;3.50;97389.00;;;;5096532;28;20199;-59
2022/11/12 03:29:04;;;;;;;1.03;1.03;;;4.40;99.90;3.60;97388.00;;;;5096674;28;20229;-58
2022/11/12 03:31:31;;;;;;;0.60;0.60;;;4.50;99.90;3.60;97384.00;;;;5095804;28;20218;-59
2022/11/12 03:33:58;;;;;;;0.80;0.80;;;4.50;99.90;3.70;97385.00;;;;5095531;28;20665;-58
2022/11/12 03:36:26;;;;;;;0.80;0.80;;;4.50;99.90;3.70;97381.00;;;;5096556;28;20195;-59
2022/11/12 03:38:53;;;;;;;0.60;0.60;;;4.60;99.90;3.60;97382.00;;;;5096100;28;20226;-59
2022/11/12 03:41:19;;;;;;;0.70;0.70;;;4.60;99.90;3.70;97385.00;;;;5096453;28;20210;-59
2022/11/12 03:43:45;;;;;;;0.63;0.63;;;4.50;99.90;3.60;97387.00;;;;5096391;28;20206;-59
2022/11/12 03:46:12;;;;;;;0.70;0.70;;;4.50;99.90;3.40;97379.00;;;;5096256;28;20202;-59
2022/11/12 03:48:39;;;;;;;0.70;0.70;;;4.30;99.90;3.30;97393.00;;;;5096184;28;20203;-60
2022/11/12 03:51:07;;;;;;;0.60;0.60;;;4.30;99.90;3.30;97387.00;;;;5095930;28;20223;-59
2022/11/12 03:53:34;;;;;;;0.80;0.80;;;4.20;99.90;3.30;97392.00;;;;5096136;28;20191;-60
2022/11/12 03:56:00;;;;;;;0.80;0.80;;;4.30;99.90;3.30;97390.00;;;;5096068;28;20226;-59
2022/11/12 03:58:29;;;;;;;1.23;1.23;;;4.30;99.90;3.40;97387.00;;;;5096004;28;20220;-61
2022/11/12 04:00:55;;;;;;;0.73;0.73;;;4.30;99.90;3.40;97394.00;;;;5096051;28;20255;-59
2022/11/12 04:03:22;;;;;;;0.87;0.87;;;4.40;99.90;3.40;97394.00;;;;5095068;28;20213;-60
2022/11/12 04:08:37;;;;;;;1.43;1.33;;;4.30;99.90;3.30;97392.00;;;;5095900;28;20252;-58
2022/11/12 04:11:07;;;;;;;1.63;1.53;;;4.30;99.90;3.30;97394.00;;;;5095804;28;20194;-63
2022/11/12 04:13:37;;;;;;;1.10;1.10;;;4.30;99.90;3.30;97395.00;;;;5078039;28;20218;-64
2022/11/12 04:21:55;;;;;;;0.90;0.90;;;4.10;99.90;3.10;97388.00;;;;5095961;28;20686;-59
2022/11/12 04:27:15;;;;;;;0.90;0.90;;;4.10;99.90;3.00;97383.00;;;;5095788;28;20742;-59
2022/11/12 04:32:29;;;;;;;0.97;0.97;;;4.00;99.90;3.00;97376.00;;;;5095606;28;20225;-59
2022/11/12 04:34:56;;;;;;;0.60;0.60;;;4.00;99.90;3.00;97377.00;;;;5094682;28;20615;-60
2022/11/12 04:37:26;;;;;;;0.70;0.70;;;3.90;99.90;3.10;97384.00;;;;5095615;28;20225;-60
2022/11/12 04:39:53;;;;;;;0.70;0.70;;;4.00;99.90;3.10;97386.00;;;;5077594;28;20230;-59
2022/11/12 04:45:10;;;;;;;0.80;0.80;;;4.00;99.90;3.20;97381.00;;;;5077705;28;20220;-58
2022/11/12 04:47:39;;;;;;;0.63;0.63;;;;;3.10;97382.00;;;;5094521;28;20218;-63
2022/11/12 04:50:13;;;;;;;0.90;0.90;;;4.10;99.90;3.20;97386.00;;;;5095351;28;20210;-63
2022/11/12 04:52:40;;;;;;;0.67;0.67;;;4.10;99.90;3.10;97379.00;;;;5094506;28;20226;-59
2022/11/12 04:55:10;;;;;;;0.70;0.70;;;4.00;99.90;3.00;97380.00;;;;5095268;28;20210;-58
2022/11/12 04:57:38;;;;;;;5.30;2.20;;;3.90;99.90;2.90;97373.00;;;;5095162;28;20240;-59
2022/11/12 05:00:06;;;;;;;1.17;1.13;;;3.90;99.90;3.00;97371.00;;;;5095414;28;20241;-58
2022/11/12 05:02:33;;;;;;;1.10;1.10;;;3.90;99.90;3.00;97360.00;;;;5094313;28;20271;-60
2022/11/12 05:04:59;;;;;;;1.00;1.00;;;3.90;99.90;3.10;97363.00;;;;5095027;28;20198;-58
2022/11/12 05:07:25;;;;;;;0.90;0.90;;;4.00;99.90;3.10;97369.00;;;;5095032;28;20202;-62
2022/11/12 05:09:53;;;;;;;0.70;0.70;;;4.00;99.90;3.20;97372.00;;;;5094965;28;20323;-61
2022/11/12 05:12:19;;;;;;;1.37;1.27;;;4.10;99.90;3.20;97361.00;;;;5095028;28;20191;-59
2022/11/12 05:14:45;;;;;;;0.70;0.70;;;4.00;99.90;3.20;97367.00;;;;5094805;28;20306;-59
2022/11/12 05:17:12;;;;;;;0.87;0.87;;;4.10;99.90;3.10;97374.00;;;;5094929;28;20202;-58
2022/11/12 05:19:38;;;;;;;1.83;1.70;;;4.10;99.90;3.20;97373.00;;;;5094706;28;20504;-59
2022/11/12 05:22:04;;;;;;;0.70;0.70;;;4.10;99.90;3.10;97375.00;;;;5094998;28;20213;-59
2022/11/12 05:24:35;;;;;;;1.00;1.00;;;4.00;99.90;3.10;97368.00;;;;5094855;28;20530;-60
2022/11/12 05:27:02;;;;;;;1.43;1.33;;;4.00;99.90;3.10;97369.00;;;;5093931;28;20573;-59
2022/11/12 05:29:29;;;;;;;0.63;0.63;;;4.10;99.90;3.10;97374.00;;;;5077018;28;20289;-59
2022/11/12 05:31:55;;;;;;;0.80;0.80;;;4.00;99.90;3.10;97370.00;;;;5094514;28;20234;-60
2022/11/12 05:34:22;;;;;;;1.63;1.07;;;4.00;99.90;3.00;97362.00;;;;5076783;28;20214;-60
2022/11/12 05:36:51;;;;;;;0.77;0.77;;;4.00;99.90;2.90;97358.00;;;;5094708;28;20230;-59
2022/11/12 05:39:17;;;;;;;1.13;1.13;;;3.90;99.90;2.90;97376.00;;;;5094637;28;20215;-59
2022/11/12 05:41:44;;;;;;;1.77;1.67;;;3.90;99.90;2.90;97377.00;;;;5094534;28;20202;-61
2022/11/12 05:44:11;;;;;;;0.70;0.70;;;3.90;99.90;2.90;97377.00;;;;5093858;28;20202;-59
2022/11/12 05:46:37;;;;;;;0.90;0.90;;;3.80;99.90;2.90;97378.00;;;;5095015;28;20198;-60
2022/11/12 05:49:04;;;;;;;0.80;0.80;;;3.90;99.90;2.90;97386.00;;;;5094344;28;20210;-59
2022/11/12 05:51:30;;;;;;;0.70;0.70;;;3.80;99.90;2.80;97382.00;;;;5094275;28;20214;-60
2022/11/12 05:53:57;;;;;;;0.80;0.80;;;3.80;99.90;2.80;97383.00;;;;5094303;28;20541;-61
2022/11/12 05:56:23;;;;;;;0.60;0.60;;;3.80;99.90;2.80;97380.00;;;;5076654;28;20510;-60
2022/11/12 05:58:50;;;;;;;0.73;0.73;;;3.70;99.90;2.80;97389.00;;;;5098801;28;20219;-60
2022/11/12 06:01:17;;;;;;;0.80;0.80;;;3.70;99.90;2.90;97377.00;;;;5094397;28;20271;-58
2022/11/12 06:03:43;;;;;;;0.80;0.80;;;3.70;99.90;2.90;97389.00;;;;5094172;28;20243;-59
2022/11/12 06:06:10;;;;;;;1.10;1.00;;;3.80;99.90;2.90;97382.00;;;;5093517;28;20205;-58
2022/11/12 06:08:36;;;;;;;2.07;1.83;;;3.90;99.90;2.90;97382.00;;;;5094174;28;20203;-58
2022/11/12 06:11:03;;;;;;;2.90;1.40;;;3.90;99.90;2.80;97390.00;;;;5094124;28;20241;-60
2022/11/12 06:13:31;;;;;;;1.73;1.70;;;3.80;99.90;2.70;97396.00;;;;5093139;28;20531;-61
2022/11/12 06:15:58;;;;;;;1.10;1.10;;;3.70;99.90;2.70;97389.00;;;;5094036;28;20284;-58
2022/11/12 06:18:25;;;;;;;0.80;0.80;;;3.70;99.90;2.60;97401.00;;;;5094095;28;20305;-60
2022/11/12 06:23:37;;;;;;;0.70;0.70;;;3.60;99.50;2.70;97398.00;;;;5094045;28;20255;-57
2022/11/12 06:26:04;;;;;;;0.77;0.77;;;3.60;99.90;2.70;97406.00;;;;5094067;28;20195;-59
2022/11/12 06:28:30;;;;;;;1.00;0.93;;;3.60;99.90;2.60;97413.00;;;;5093920;28;20214;-59
2022/11/12 06:30:56;;;;;;;0.70;0.70;;;3.50;99.90;2.60;97410.00;;;;5094360;28;20212;-59
2022/11/12 06:33:23;;;;;;;0.93;0.93;;;3.50;99.90;2.60;97421.00;;;;5093760;28;20223;-59
2022/11/12 06:35:57;;;;;;;0.60;0.60;;;3.60;99.90;2.70;97416.00;;;;5093944;28;20206;-59
2022/11/12 06:38:23;;;;;;;1.00;1.00;;;3.60;99.90;2.70;97420.00;;;;5093652;28;20683;-59
2022/11/12 06:40:50;;;;;;;1.27;1.27;;;3.60;99.90;2.70;97409.00;;;;5092807;28;20282;-58
2022/11/12 06:43:17;;;;;;;1.43;1.33;;;3.60;99.90;2.70;97417.00;;;;5093689;28;20218;-59
2022/11/12 06:45:43;;;;;;;0.77;0.77;;;3.70;99.90;2.70;97414.00;;;;5093709;28;20198;-59
2022/11/12 06:48:11;;;;;;;1.50;1.40;;;3.60;99.90;2.50;97409.00;;;;5093784;28;20234;-59
2022/11/12 06:50:38;;;;;;;0.80;0.80;;;3.50;99.80;2.60;97414.00;;;;5093545;28;20290;-59
2022/11/12 06:53:05;;;;;;;0.90;0.90;;;3.50;99.90;2.60;97420.00;;;;5093571;28;20203;-61
2022/11/12 06:55:32;;;;;;;0.80;0.80;;;3.50;99.90;2.60;97410.00;;;;5093508;28;20218;-61
2022/11/12 06:57:58;;;;;;;0.70;0.70;;;3.50;99.90;2.60;97417.00;;;;5093530;28;20206;-59
2022/11/12 07:00:24;;;;;;;1.23;1.23;;;3.60;99.90;2.60;97388.00;;;;5093358;28;20230;-59
2022/11/12 07:02:51;;;;;;;1.17;1.17;;;3.50;99.90;2.50;97417.00;;;;5093429;28;20221;-58
2022/11/12 07:05:17;;;;;;;1.27;1.20;;;3.40;99.90;2.70;97413.00;;;;5093549;28;20190;-61
2022/11/12 07:07:44;;;;;;;0.80;0.80;;;3.50;99.90;2.80;97414.00;;;;5093400;28;20202;-59
2022/11/12 07:10:13;;;;;;;0.90;0.90;;;3.70;99.90;2.90;97407.00;;;;5093342;28;20289;-60
2022/11/12 07:12:40;;;;;;;0.80;0.80;;;3.80;99.90;2.90;97410.00;;;;5093264;28;20226;-61
2022/11/12 07:15:07;;;;;;;1.00;1.00;;;3.80;99.60;3.00;97405.00;;;;5093294;28;20195;-59
2022/11/12 07:17:33;;;;;;;0.93;0.93;;;3.80;99.50;3.10;97419.00;;;;5093202;28;20219;-57
2022/11/12 07:20:00;;;;;;;0.80;0.80;;;4.00;99.50;3.20;97412.00;;;;5092368;28;20218;-62
2022/11/12 07:22:26;;;;;;;0.87;0.87;;;4.00;99.20;3.20;97413.00;;;;5093406;28;20203;-59
2022/11/12 07:24:53;;;;;;;0.60;0.60;;;4.10;98.90;3.20;97412.00;;;;5094525;28;20194;-58
2022/11/12 07:27:20;;;;;;;0.80;0.80;;;4.10;98.40;3.20;97409.00;;;;5095633;28;20239;-58
2022/11/12 07:29:46;;;;;;;1.43;1.33;;;4.10;98.60;3.30;97408.00;;;;5096734;28;20210;-57
2022/11/12 07:32:12;;;;;;;0.60;0.60;;;4.10;97.90;3.20;97403.00;;;;5095678;28;20324;-60
2022/11/12 07:34:39;;;;;;;4.63;1.37;;;4.10;97.70;3.40;97409.00;;;;5096687;28;20222;-60
2022/11/12 07:37:05;;;;;;;0.70;0.70;;;4.10;97.90;3.40;97408.00;;;;5096609;28;20233;-59
2022/11/12 07:39:32;;;;;;;0.70;0.70;;;4.30;97.70;3.50;97402.00;;;;5096410;28;20226;-59
2022/11/12 07:41:58;;;;;;;0.80;0.80;;;4.30;97.70;3.50;97400.00;;;;5096424;28;20198;-59
2022/11/12 07:44:25;;;;;;;0.90;0.90;;;4.30;97.10;3.60;97409.00;;;;5096363;28;20286;-61
2022/11/12 07:46:52;;;;;;;0.97;0.97;;;4.40;97.40;3.70;97404.00;;;;5096280;28;20222;-61
2022/11/12 07:49:18;;;;;;;0.93;0.93;;;4.50;96.90;3.80;97407.00;;;;5096228;28;20641;-64
2022/11/12 07:51:46;;;;;;;0.60;0.60;;;4.60;96.70;3.80;97403.00;;;;5095517;28;20229;-60
2022/11/12 07:54:13;;;;;;;0.60;0.60;;;4.60;95.80;3.80;97393.00;;;;5096265;28;20205;-58
2022/11/12 07:56:39;;;;;;;0.77;0.77;;;4.50;95.60;3.90;97389.00;;;;5096115;28;20198;-59
2022/11/12 07:59:06;;;;;;;1.10;1.10;;;4.70;95.80;4.00;97395.00;;;;5096089;28;20283;-58
2022/11/12 08:01:36;;;;;;;0.93;0.93;;;4.80;96.20;4.10;97402.00;;;;5096031;28;20210;-59
2022/11/12 08:04:06;;;;;;;0.80;0.80;;;4.90;96.30;4.20;97402.00;;;;5095946;28;20210;-59
2022/11/12 08:06:33;;;;;;;0.73;0.73;;;5.00;95.90;4.30;97393.00;;;;5096102;28;20203;-59
2022/11/12 08:09:04;;;;;;;1.07;1.07;;;5.00;96.00;4.40;97399.00;;;;5095894;28;20218;-61
2022/11/12 08:11:32;;;;;;;0.70;0.70;;;;;4.50;97392.00;;;;5095918;28;20281;-62
2022/11/12 08:13:58;;;;;;;1.07;1.07;;;5.40;95.40;4.60;97397.00;;;;5077921;28;20253;-58
2022/11/12 08:16:25;;;;;;;0.93;0.83;;;5.40;95.50;4.60;97389.00;;;;5095867;28;20203;-58
2022/11/12 08:18:52;;;;;;;0.90;0.90;;;5.50;95.20;4.50;97391.00;;;;5095988;28;20219;-58
2022/11/12 08:21:19;;;;;;;0.80;0.80;;;5.40;94.30;4.70;97393.00;;;;5095860;28;20225;-57
2022/11/12 08:23:46;;;;;;;1.43;1.33;;;5.50;95.60;4.70;97402.00;;;;5095692;28;20206;-59
2022/11/12 08:26:20;;;;;;;0.90;0.90;;;5.50;95.00;4.80;97402.00;;;;5095791;28;20199;-59
2022/11/12 08:28:47;;;;;;;5.10;1.87;;;5.50;95.40;4.80;97394.00;;;;5095707;28;20191;-59
2022/11/12 08:31:18;;;;;;;0.93;0.93;;;5.60;95.10;5.00;97390.00;;;;5094708;28;20329;-60
2022/11/12 08:33:45;;;;;;;0.80;0.80;;;5.70;96.00;5.20;97391.00;;;;5095619;28;20222;-58
2022/11/12 08:36:15;;;;;;;0.70;0.70;;;6.00;95.50;5.40;97386.00;;;;5094411;28;20324;-59
2022/11/12 08:38:46;;;;;;;1.47;1.43;;;6.10;95.20;5.40;97387.00;;;;5095455;28;20574;-60
2022/11/12 08:41:15;;;;;;;0.80;0.80;;;6.20;95.30;5.40;97387.00;;;;5095406;28;20209;-58
2022/11/12 08:43:41;;;;;;;1.00;0.97;;;6.20;95.00;5.60;97390.00;;;;5094341;28;20602;-57
2022/11/12 08:46:09;;;;;;;0.57;0.57;;;6.30;94.90;5.90;97367.00;;;;5095279;28;20195;-58
2022/11/12 08:48:38;;;;;;;0.50;0.50;;;6.50;94.00;5.70;97399.00;;;;5077403;28;20233;-58
2022/11/12 08:51:07;;;;;;;0.70;0.70;;;6.50;94.80;5.70;97402.00;;;;5095235;28;20198;-58
2022/11/12 08:53:34;;;;;;;0.97;0.97;;;6.50;94.70;6.00;97400.00;;;;5095034;28;20279;-59
2022/11/12 08:56:01;;;;;;;1.37;1.27;;;6.60;94.20;6.20;97367.00;;;;5095130;28;20206;-58
2022/11/12 08:58:27;;;;;;;0.63;0.63;;;6.80;94.10;6.20;97394.00;;;;5094135;28;20234;-58
2022/11/12 09:00:56;;;;;;;0.73;0.73;;;6.90;94.00;6.40;97398.00;;;;5077414;28;20207;-61
2022/11/12 09:03:25;;;;;;;1.00;1.00;;;7.10;94.70;6.60;97386.00;;;;5095055;28;20229;-59
2022/11/12 09:05:53;;;;;;;1.20;1.20;;;7.40;94.10;6.70;97383.00;;;;5095028;28;20567;-59
2022/11/12 09:08:22;;;;;;;1.13;1.13;;;7.40;93.70;6.80;97389.00;;;;5094850;28;20217;-58
2022/11/12 09:10:50;;;;;;;0.90;0.90;;;7.40;93.70;6.90;97377.00;;;;5094953;28;20630;-58
2022/11/12 09:13:19;;;;;;;0.80;0.80;;;7.60;93.50;7.00;97386.00;;;;5094903;28;20229;-59
2022/11/12 09:15:46;;;;;;;1.10;1.10;;;;;7.10;97387.00;;;;5095024;28;20226;-59
2022/11/12 09:18:16;;;;;;;1.70;1.27;;;7.70;91.80;7.10;97376.00;;;;5076924;28;20203;-59
2022/11/12 09:20:43;;;;;;;1.30;0.90;;;7.70;92.90;7.00;97382.00;;;;5094772;28;20241;-58
2022/11/12 09:23:14;;;;;;;0.80;0.80;;;7.60;92.90;7.30;97384.00;;;;5094764;28;20231;-61
2022/11/12 09:25:42;;;;;;;0.80;0.80;;;7.90;94.10;7.50;97375.00;;;;5094920;28;20206;-58
2022/11/12 09:28:14;;;;;;;0.90;0.90;;;8.10;93.80;7.70;97371.00;;;;5076950;28;20202;-59
2022/11/12 09:30:45;;;;;;;0.70;0.70;;;8.30;92.80;7.70;97377.00;;;;5076781;28;20214;-58
2022/11/12 09:33:12;;;;;;;1.03;1.03;;;8.40;92.20;7.70;97361.00;;;;5094818;28;20800;-59
2022/11/12 09:35:40;;;;;;;0.93;0.93;;;8.40;92.00;8.00;97373.00;;;;5093969;28;20202;-59
2022/11/12 09:38:07;;;;;;;1.27;1.27;;;8.50;93.10;8.20;97369.00;;;;5094474;28;20825;-59
2022/11/12 09:40:58;;;;;;;1.13;1.13;;;8.70;91.90;8.60;97376.00;;;;5094545;28;20218;-59
2022/11/12 09:43:30;;;;;;;1.20;1.20;;;9.00;90.70;8.70;97375.00;;;;5094718;28;20509;-59
2022/11/12 09:46:05;;;;;;;0.70;0.70;;;9.30;89.80;8.90;97369.00;;;;5094575;28;20217;-59
2022/11/12 09:48:37;;;;;;;0.60;0.60;;;9.40;89.70;9.10;97365.00;;;;5094100;28;20263;-61
2022/11/12 09:51:12;;;;;;;1.13;1.07;;;9.60;89.60;9.20;97364.00;;;;5094475;28;20179;-59
2022/11/12 09:53:48;;;;;;;0.70;0.70;;;9.80;88.00;9.30;97368.00;;;;5094403;28;20194;-59
2022/11/12 09:56:18;;;;;;;0.90;0.90;;;9.80;89.00;9.50;97359.00;;;;5076316;28;20230;-62
2022/11/12 09:58:45;;;;;;;1.03;0.93;;;10.00;89.10;9.60;97368.00;;;;5094278;28;20215;-59
2022/11/12 10:01:17;;;;;;;0.87;0.87;;;10.10;89.40;9.80;97353.00;;;;5094201;28;20222;-59
2022/11/12 10:03:58;;;;;;;0.90;0.90;;;10.30;88.30;9.70;97360.00;;;;5094555;28;20200;-61
2022/11/12 10:06:34;;;;;;;6.40;1.37;;;10.30;86.90;9.70;97330.00;;;;5076432;28;20668;-59
2022/11/12 10:09:08;;;;;;;0.50;0.50;;;10.30;88.40;9.90;97353.00;;;;5094300;28;20171;-60
2022/11/12 10:18:37;;;;;;;1.90;1.77;;;11.20;85.60;10.70;97337.00;;;;5094061;28;20627;-60
2022/11/12 10:21:18;;;;;;;1.40;1.13;;;11.20;86.00;10.70;97351.00;;;;5094016;28;20562;-59
2022/11/12 10:23:50;;;;;;;0.83;0.83;;;11.20;85.30;10.40;97352.00;;;;5094048;28;20643;-58
2022/11/12 10:26:20;;;;;;;0.70;0.70;;;11.10;86.70;10.90;97344.00;;;;5093914;28;20230;-58
2022/11/12 10:28:52;;;;;;;0.73;0.73;;;11.30;86.60;11.30;97349.00;;;;5093844;28;20229;-57
2022/11/12 10:31:20;;;;;;;0.70;0.70;;;;;11.50;97342.00;;;;5093774;28;20317;-58
2022/11/12 10:33:49;;;;;;;0.80;0.80;;;;;11.80;97341.00;;;;5076161;28;20519;-58
2022/11/12 10:36:28;;;;;;;1.00;1.00;;;12.20;83.20;11.90;97337.00;;;;5093675;28;20230;-59
2022/11/12 10:38:55;;;;;;;0.80;0.80;;;12.60;81.30;12.20;97343.00;;;;5093695;28;20210;-59
2022/11/12 10:41:25;;;;;;;1.13;1.13;;;12.60;82.00;12.40;97335.00;;;;5093717;28;20257;-59
2022/11/12 10:43:57;;;;;;;1.63;1.53;;;12.80;81.20;12.70;97329.00;;;;5092891;28;20213;-62
2022/11/12 10:46:28;;;;;;;0.90;0.90;;;13.00;81.80;12.70;97329.00;;;;5075811;28;20222;-59
2022/11/12 10:49:01;;;;;;;1.27;1.27;;;13.10;79.40;13.00;97317.00;;;;5093609;28;20712;-62
2022/11/12 10:51:32;;;;;;;0.83;0.83;;;13.30;80.20;13.20;97318.00;;;;5093649;28;20222;-61
2022/11/12 10:54:28;;;;;;;0.60;0.60;;;13.50;78.70;13.30;97322.00;;;;5075871;28;20199;-60
2022/11/12 10:57:18;;;;;;;1.30;1.20;;;13.60;78.40;13.80;97315.00;;;;5093465;28;20226;-60
2022/11/12 10:59:45;;;;;;;0.77;0.77;;;14.00;78.50;13.90;97322.00;;;;5094571;28;20273;-57
2022/11/12 11:02:17;;;;;;;0.60;0.60;;;14.10;76.80;14.00;97319.00;;;;5096934;28;20250;-57
2022/11/12 11:04:45;;;;;;;1.50;1.40;;;14.30;75.30;14.30;97321.00;;;;5096034;28;20206;-60
2022/11/12 11:07:21;;;;;;;0.60;0.60;;;14.50;74.10;14.30;97320.00;;;;5096912;28;20230;-58
2022/11/12 11:09:53;;;;;;;0.70;0.70;;;14.50;73.30;14.30;97324.00;;;;5097106;28;20498;-58
2022/11/12 11:12:26;;;;;;;6.87;1.73;;;14.60;71.30;14.70;97319.00;;;;5096971;28;20291;-58
2022/11/12 11:15:06;;;;;;;1.00;1.00;;;14.80;73.00;15.20;97316.00;;;;5096768;28;20202;-59
2022/11/12 11:17:34;;;;;;;1.53;1.43;;;15.30;72.80;14.90;97312.00;;;;5096710;28;20222;-58
2022/11/12 11:20:02;;;;;;;1.47;1.43;;;15.20;68.10;15.10;97314.00;;;;5096632;28;20218;-59
2022/11/12 11:22:41;;;;;;;0.80;0.80;;;15.40;73.80;15.40;97310.00;;;;5096618;28;20222;-57
2022/11/12 11:25:20;;;;;;;1.03;1.03;;;15.50;68.20;15.60;97308.00;;;;5095759;28;20218;-58
2022/11/12 11:28:09;;;;;;;1.03;1.03;;;15.70;64.30;15.80;97318.00;;;;5096567;28;20218;-58
2022/11/12 11:30:45;;;;;;;0.90;0.90;;;16.10;58.00;16.10;97303.00;;;;5096651;28;20195;-58
2022/11/12 11:33:45;;;;;;;2.00;1.33;;;16.20;57.40;16.10;97302.00;;;;5096466;28;20229;-58
2022/11/12 11:36:23;;;;;;;0.87;0.87;;;16.30;55.30;16.40;97302.00;;;;5096588;28;20209;-59
2022/11/12 11:39:00;;;;;;;0.97;0.97;;;16.50;54.90;16.70;97298.00;;;;5078635;28;20226;-59
2022/11/12 11:41:53;;;;;;;0.73;0.73;;;16.70;53.50;16.80;97303.00;;;;5096493;28;20209;-64
2022/11/12 11:44:36;;;;;;;1.23;1.13;;;16.70;52.70;17.10;97307.00;;;;5078669;28;20609;-59
2022/11/12 11:47:22;;;;;;;0.97;0.97;;;17.20;52.30;17.00;97297.00;;;;5096371;28;20288;-58